Time;durP1;ratioP1;P1;durP2;ratioP2;P2;SDS_P1;SDS_P2;PMS_P1;PMS_P2;Temp;Humidity;BMP_temperature;BMP_pressure;BME280_temperature;BME280_humidity;BME280_pressure;Samples;Min_cycle;Max_cycle;Signal;HPM_P1;HPM_P2
2024/04/07 00:00:23;;;;;;;7.43;4.07;;;;;;;;;;5012876;28;20034;-68
2024/04/07 00:02:52;;;;;;;7.95;4.10;;;;;;;;;;5011971;28;20087;-68
2024/04/07 00:05:19;;;;;;;10.43;4.40;;;;;;;;;;5012201;28;20036;-68
2024/04/07 00:07:44;;;;;;;9.20;4.30;;;;;;;;;;5012546;28;20077;-68
2024/04/07 00:10:10;;;;;;;6.28;3.30;;;;;;;;;;5011559;28;20053;-68
2024/04/07 00:12:35;;;;;;;5.30;3.38;;;;;;;;;;5012768;28;20038;-68
2024/04/07 00:15:01;;;;;;;7.60;3.80;;;;;;;;;;5032460;23;20050;-66
2024/04/07 00:17:26;;;;;;;7.07;3.55;;;;;;;;;;4993589;28;20022;-66
2024/04/07 00:19:52;;;;;;;7.35;4.45;;;;;;;;;;4993128;28;20018;-66
2024/04/07 00:22:17;;;;;;;7.10;4.30;;;;;;;;;;5000522;28;20025;-66
2024/04/07 00:24:44;;;;;;;8.88;4.25;;;;;;;;;;5024529;28;20394;-66
2024/04/07 00:27:09;;;;;;;8.32;4.47;;;;;;;;;;5032673;28;20021;-66
2024/04/07 00:29:34;;;;;;;10.00;5.07;;;;;;;;;;5032225;28;20043;-66
2024/04/07 00:32:00;;;;;;;7.93;4.22;;;;;;;;;;5031558;28;20017;-66
2024/04/07 00:34:25;;;;;;;9.95;4.93;;;;;;;;;;5032468;28;20034;-66
2024/04/07 00:36:50;;;;;;;8.23;4.68;;;;;;;;;;5031791;28;20026;-66
2024/04/07 00:39:16;;;;;;;13.25;5.43;;;;;;;;;;5032493;28;20027;-65
2024/04/07 00:41:42;;;;;;;9.35;4.68;;;;;;;;;;5036018;28;20028;-66
2024/04/07 00:44:07;;;;;;;6.75;4.38;;;;;;;;;;5028032;28;20022;-66
2024/04/07 00:46:32;;;;;;;9.75;4.95;;;;;;;;;;5016485;28;20467;-66
2024/04/07 00:48:58;;;;;;;9.90;5.07;;;;;;;;;;5018084;28;20021;-65
2024/04/07 00:51:23;;;;;;;12.88;4.93;;;;;;;;;;5034433;28;20025;-66
2024/04/07 00:53:48;;;;;;;7.65;4.60;;;;;;;;;;5034702;28;20479;-65
2024/04/07 00:56:14;;;;;;;7.75;4.47;;;;;;;;;;5035373;28;20025;-66
2024/04/07 00:58:39;;;;;;;8.63;5.40;;;;;;;;;;5031461;28;20028;-66
2024/04/07 01:01:05;;;;;;;9.35;4.57;;;;;;;;;;5034999;28;20022;-66
2024/04/07 01:03:30;;;;;;;12.38;5.25;;;;;;;;;;5031899;28;20480;-66
2024/04/07 01:05:55;;;;;;;18.25;5.60;;;;;;;;;;5035457;28;20040;-66
2024/04/07 01:08:21;;;;;;;14.77;6.35;;;;;;;;;;5035638;28;20095;-66
2024/04/07 01:10:51;;;;;;;9.82;5.95;;;;;;;;;;5034687;28;20028;-65
2024/04/07 01:13:16;;;;;;;7.20;5.40;;;;;;;;;;5032277;28;20033;-66
2024/04/07 01:15:41;;;;;;;10.82;6.32;;;;;;;;;;5035383;28;20029;-66
2024/04/07 01:18:07;;;;;;;15.07;6.68;;;;;;;;;;5035587;28;20498;-66
2024/04/07 01:20:33;;;;;;;12.93;7.28;;;;;;;;;;5036029;28;20048;-66
2024/04/07 01:22:59;;;;;;;10.02;6.47;;;;;;;;;;5035570;28;20025;-66
2024/04/07 01:25:24;;;;;;;10.80;6.22;;;;;;;;;;5032656;28;20076;-66
2024/04/07 01:27:54;;;;;;;11.95;6.43;;;;;;;;;;5035076;28;20029;-66
2024/04/07 01:30:20;;;;;;;12.40;7.45;;;;;;;;;;5034277;28;20505;-66
2024/04/07 01:32:45;;;;;;;21.25;6.20;;;;;;;;;;5035425;28;20033;-66
2024/04/07 01:35:10;;;;;;;11.43;5.65;;;;;;;;;;5034339;28;20434;-66
2024/04/07 01:37:36;;;;;;;8.57;6.00;;;;;;;;;;5034751;28;20021;-66
2024/04/07 01:40:03;;;;;;;9.82;5.50;;;;;;;;;;5035313;28;20026;-66
2024/04/07 01:42:29;;;;;;;11.57;5.85;;;;;;;;;;5034487;28;20051;-66
2024/04/07 01:44:55;;;;;;;8.43;4.85;;;;;;;;;;5034759;28;20037;-66
2024/04/07 01:47:20;;;;;;;8.52;5.10;;;;;;;;;;5033642;28;20091;-66
2024/04/07 01:49:48;;;;;;;9.88;5.90;;;;;;;;;;5035019;28;20032;-66
2024/04/07 01:52:14;;;;;;;10.45;5.80;;;;;;;;;;5034093;28;20075;-66
2024/04/07 01:54:39;;;;;;;11.05;5.88;;;;;;;;;;5034790;28;20475;-66
2024/04/07 01:57:04;;;;;;;7.47;4.88;;;;;;;;;;5034291;28;20033;-66
2024/04/07 01:59:30;;;;;;;7.05;4.90;;;;;;;;;;5034762;28;20063;-66
2024/04/07 02:01:55;;;;;;;8.77;5.30;;;;;;;;;;5034813;28;20096;-66
2024/04/07 02:04:20;;;;;;;9.77;5.15;;;;;;;;;;5034549;28;20021;-66
2024/04/07 02:06:46;;;;;;;9.88;5.18;;;;;;;;;;5034279;28;20025;-66
2024/04/07 02:09:11;;;;;;;11.57;5.88;;;;;;;;;;5034697;28;20482;-66
2024/04/07 02:11:37;;;;;;;9.13;4.85;;;;;;;;;;5034496;28;20021;-66
2024/04/07 02:14:02;;;;;;;15.27;5.18;;;;;;;;;;5034610;28;20037;-66
2024/04/07 02:16:27;;;;;;;9.73;4.97;;;;;;;;;;5033587;28;20017;-65
2024/04/07 02:18:53;;;;;;;7.93;4.45;;;;;;;;;;5034225;28;20028;-66
2024/04/07 02:21:18;;;;;;;16.17;3.97;;;;;;;;;;5034154;28;20402;-64
2024/04/07 02:23:43;;;;;;;9.80;4.47;;;;;;;;;;5032668;28;20032;-66
2024/04/07 02:26:09;;;;;;;11.85;4.45;;;;;;;;;;5026822;28;20021;-66
2024/04/07 02:28:34;;;;;;;6.18;4.03;;;;;;;;;;5034178;28;20491;-66
2024/04/07 02:31:00;;;;;;;12.75;4.90;;;;;;;;;;5033954;28;20033;-66
2024/04/07 02:33:25;;;;;;;8.20;4.70;;;;;;;;;;5034194;28;20445;-66
2024/04/07 02:35:56;;;;;;;9.43;4.25;;;;;;;;;;5034523;28;20044;-66
2024/04/07 02:38:22;;;;;;;9.38;5.53;;;;;;;;;;5034324;28;20017;-66
2024/04/07 02:40:47;;;;;;;7.47;4.70;;;;;;;;;;5033795;28;20025;-66
2024/04/07 02:43:12;;;;;;;5.85;5.22;;;;;;;;;;5033832;28;20025;-66
2024/04/07 02:48:22;;;;;;;5.72;3.80;;;;;;;;;;5033749;28;20037;-66
2024/04/07 02:50:47;;;;;;;5.53;3.97;;;;;;;;;;5031660;28;20399;-66
2024/04/07 02:53:13;;;;;;;6.28;4.45;;;;;;;;;;5033716;28;20026;-66
2024/04/07 02:55:38;;;;;;;8.32;3.85;;;;;;;;;;5033052;28;20021;-66
2024/04/07 02:58:03;;;;;;;6.72;4.30;;;;;;;;;;5033717;28;20505;-66
2024/04/07 03:00:30;;;;;;;8.77;4.13;;;;;;;;;;5033704;28;20075;-66
2024/04/07 03:02:55;;;;;;;8.00;4.05;;;;;;;;;;5032661;28;20033;-66
2024/04/07 03:05:21;;;;;;;6.57;4.43;;;;;;;;;;5032388;28;20031;-66
2024/04/07 03:07:49;;;;;;;7.28;4.72;;;;;;;;;;5032362;28;20091;-66
2024/04/07 03:10:16;;;;;;;12.60;4.72;;;;;;;;;;5033735;28;20059;-66
2024/04/07 03:12:44;;;;;;;7.85;5.05;;;;;;;;;;5032747;28;20498;-65
2024/04/07 03:15:10;;;;;;;7.90;4.88;;;;;;;;;;5028809;28;20494;-66
2024/04/07 03:17:36;;;;;;;6.78;4.20;;;;;;;;;;5032420;28;20075;-66
2024/04/07 03:20:03;;;;;;;5.07;3.45;;;;;;;;;;5032571;28;20017;-66
2024/04/07 03:22:28;;;;;;;7.03;3.63;;;;;;;;;;5032557;28;20434;-65
2024/04/07 03:24:54;;;;;;;8.73;3.90;;;;;;;;;;5028687;28;20026;-66
2024/04/07 03:27:19;;;;;;;6.30;4.05;;;;;;;;;;5013236;28;20033;-65
2024/04/07 03:29:44;;;;;;;9.50;3.50;;;;;;;;;;5013275;28;20388;-66
2024/04/07 03:32:10;;;;;;;6.25;3.70;;;;;;;;;;5023800;28;20075;-66
2024/04/07 03:34:35;;;;;;;8.98;3.33;;;;;;;;;;5033098;28;20033;-66
2024/04/07 03:37:00;;;;;;;6.85;3.60;;;;;;;;;;5032941;28;20033;-66
2024/04/07 03:39:26;;;;;;;5.45;3.53;;;;;;;;;;5032527;28;20018;-65
2024/04/07 03:41:51;;;;;;;6.55;2.92;;;;;;;;;;5032799;28;20021;-66
2024/04/07 03:44:18;;;;;;;6.03;2.80;;;;;;;;;;5018871;28;20033;-66
2024/04/07 03:46:46;;;;;;;5.55;2.50;;;;;;;;;;5013309;28;20022;-65
2024/04/07 03:49:11;;;;;;;11.70;2.58;;;;;;;;;;5016008;28;20030;-66
2024/04/07 03:51:37;;;;;;;6.82;3.33;;;;;;;;;;5031699;28;20467;-65
2024/04/07 03:54:03;;;;;;;5.97;2.85;;;;;;;;;;5032508;28;20542;-65
2024/04/07 03:56:28;;;;;;;6.15;2.38;;;;;;;;;;5032463;28;20025;-66
2024/04/07 03:58:53;;;;;;;4.15;2.22;;;;;;;;;;5031744;28;20021;-66
2024/04/07 04:01:19;;;;;;;4.43;2.63;;;;;;;;;;5032364;28;20021;-66
2024/04/07 04:03:44;;;;;;;4.88;1.95;;;;;;;;;;5031068;28;20029;-66
2024/04/07 04:06:09;;;;;;;5.63;2.03;;;;;;;;;;5032492;28;20390;-66
2024/04/07 04:08:35;;;;;;;7.22;2.50;;;;;;;;;;5031416;28;20033;-66
2024/04/07 04:11:05;;;;;;;3.78;1.65;;;;;;;;;;5032805;28;20032;-66
2024/04/07 04:13:34;;;;;;;4.30;1.67;;;;;;;;;;5032216;28;20045;-66
2024/04/07 04:16:00;;;;;;;7.43;2.10;;;;;;;;;;5035891;28;20029;-65
2024/04/07 04:18:25;;;;;;;7.15;1.92;;;;;;;;;;5036369;28;20025;-65
2024/04/07 04:20:51;;;;;;;4.97;2.33;;;;;;;;;;5036732;28;20029;-66
2024/04/07 04:23:16;;;;;;;7.80;3.25;;;;;;;;;;5036735;28;20033;-66
2024/04/07 04:25:53;;;;;;;6.10;2.00;;;;;;;;;;5036612;28;20025;-66
2024/04/07 04:28:19;;;;;;;10.65;2.10;;;;;;;;;;5036049;28;20052;-66
2024/04/07 04:30:54;;;;;;;4.28;1.80;;;;;;;;;;5036042;28;20467;-66
2024/04/07 04:33:22;;;;;;;4.90;2.28;;;;;;;;;;5036587;28;20026;-65
2024/04/07 04:35:49;;;;;;;6.53;2.10;;;;;;;;;;5036383;28;20037;-65
2024/04/07 04:38:14;;;;;;;8.18;2.30;;;;;;;;;;5022468;28;20018;-66
2024/04/07 04:40:40;;;;;;;10.25;2.58;;;;;;;;;;5014986;28;20033;-66
2024/04/07 04:43:05;;;;;;;11.15;2.40;;;;;;;;;;5020753;28;20452;-66
2024/04/07 04:45:31;;;;;;;4.82;2.10;;;;;;;;;;5036379;28;20026;-66
2024/04/07 04:47:56;;;;;;;5.78;2.00;;;;;;;;;;5036043;28;20026;-66
2024/04/07 04:50:22;;;;;;;3.78;1.83;;;;;;;;;;5035419;28;20403;-66
2024/04/07 04:52:47;;;;;;;5.25;2.22;;;;;;;;;;5036176;28;20079;-65
2024/04/07 04:55:12;;;;;;;7.75;2.03;;;;;;;;;;5035617;28;20033;-66
2024/04/07 04:57:38;;;;;;;3.95;2.47;;;;;;;;;;5036485;28;20094;-66
2024/04/07 05:00:03;;;;;;;10.57;2.08;;;;;;;;;;5036205;28;20031;-66
2024/04/07 05:02:29;;;;;;;3.92;1.58;;;;;;;;;;5036418;28;20032;-66
2024/04/07 05:04:54;;;;;;;4.75;1.52;;;;;;;;;;5035516;28;20027;-66
2024/04/07 05:07:19;;;;;;;5.93;2.03;;;;;;;;;;5036271;28;20021;-66
2024/04/07 05:09:46;;;;;;;7.03;2.42;;;;;;;;;;5036225;28;20029;-66
2024/04/07 05:12:12;;;;;;;7.50;1.45;;;;;;;;;;5036329;28;20025;-66
2024/04/07 05:14:37;;;;;;;7.25;2.53;;;;;;;;;;5035936;28;20406;-66
2024/04/07 05:17:02;;;;;;;7.57;1.75;;;;;;;;;;5035425;28;20033;-66
2024/04/07 05:19:28;;;;;;;11.10;2.65;;;;;;;;;;5036172;28;20029;-66
2024/04/07 05:21:53;;;;;;;2.45;1.88;;;;;;;;;;5036157;28;20036;-66
2024/04/07 05:24:19;;;;;;;9.73;2.50;;;;;;;;;;5035719;28;20028;-66
2024/04/07 05:26:44;;;;;;;3.17;1.70;;;;;;;;;;5035187;28;20030;-66
2024/04/07 05:29:09;;;;;;;7.45;2.03;;;;;;;;;;5035610;28;20078;-66
2024/04/07 05:31:35;;;;;;;12.52;2.30;;;;;;;;;;5035174;28;20413;-66
2024/04/07 05:34:00;;;;;;;5.80;2.33;;;;;;;;;;5035601;28;20028;-66
2024/04/07 05:36:25;;;;;;;11.07;2.17;;;;;;;;;;5035651;28;20094;-66
2024/04/07 05:38:51;;;;;;;9.50;1.92;;;;;;;;;;5035122;28;20467;-66
2024/04/07 05:41:17;;;;;;;6.53;2.00;;;;;;;;;;5035362;28;20021;-66
2024/04/07 05:43:44;;;;;;;9.77;1.73;;;;;;;;;;5035302;28;20034;-66
2024/04/07 05:46:09;;;;;;;8.32;1.58;;;;;;;;;;5035625;28;20029;-66
2024/04/07 05:48:36;;;;;;;4.82;1.73;;;;;;;;;;5034947;28;20026;-66
2024/04/07 05:51:03;;;;;;;7.28;1.80;;;;;;;;;;5035509;28;20075;-66
2024/04/07 05:53:28;;;;;;;9.27;2.85;;;;;;;;;;5035043;28;20533;-66
2024/04/07 05:55:53;;;;;;;9.05;2.20;;;;;;;;;;5035472;28;20029;-66
2024/04/07 05:58:19;;;;;;;8.40;2.47;;;;;;;;;;5034509;28;20025;-66
2024/04/07 06:00:44;;;;;;;7.10;1.40;;;;;;;;;;5035391;28;20032;-66
2024/04/07 06:03:10;;;;;;;3.78;1.67;;;;;;;;;;5035120;28;20043;-66
2024/04/07 06:05:36;;;;;;;6.35;1.77;;;;;;;;;;5034352;28;20029;-66
2024/04/07 06:08:02;;;;;;;7.25;1.50;;;;;;;;;;5034914;28;20164;-66
2024/04/07 06:10:28;;;;;;;6.32;1.67;;;;;;;;;;5033800;28;20029;-66
2024/04/07 06:12:54;;;;;;;7.03;1.45;;;;;;;;;;5034835;28;20051;-66
2024/04/07 06:15:20;;;;;;;7.10;2.15;;;;;;;;;;5034667;28;20410;-66
2024/04/07 06:17:47;;;;;;;7.45;2.03;;;;;;;;;;5035007;28;20029;-66
2024/04/07 06:20:12;;;;;;;8.90;1.83;;;;;;;;;;5026816;28;20044;-66
2024/04/07 06:22:37;;;;;;;8.05;1.50;;;;;;;;;;5033803;28;20463;-66
2024/04/07 06:25:03;;;;;;;6.75;1.75;;;;;;;;;;5032119;28;20029;-66
2024/04/07 06:27:30;;;;;;;8.70;1.52;;;;;;;;;;5034233;28;20026;-66
2024/04/07 06:29:58;;;;;;;5.88;1.63;;;;;;;;;;5028939;28;20468;-65
2024/04/07 06:32:27;;;;;;;8.85;1.60;;;;;;;;;;5020648;28;20156;-66
2024/04/07 06:34:53;;;;;;;2.28;1.73;;;;;;;;;;5028877;28;20079;-66
2024/04/07 06:37:19;;;;;;;5.40;1.30;;;;;;;;;;5028491;28;20387;-66
2024/04/07 06:39:44;;;;;;;5.45;1.42;;;;;;;;;;5030898;28;20014;-66
2024/04/07 06:42:10;;;;;;;3.97;1.50;;;;;;;;;;5014437;28;20022;-66
2024/04/07 06:44:35;;;;;;;2.63;1.50;;;;;;;;;;5014278;28;20029;-66
2024/04/07 06:47:04;;;;;;;5.55;2.58;;;;;;;;;;5013906;28;20054;-66
2024/04/07 06:49:30;;;;;;;3.78;1.50;;;;;;;;;;5017491;28;20025;-66
2024/04/07 06:51:55;;;;;;;5.13;1.50;;;;;;;;;;5033162;28;20400;-66
2024/04/07 06:54:20;;;;;;;9.32;2.72;;;;;;;;;;5033807;28;20026;-65
2024/04/07 06:56:46;;;;;;;3.33;1.50;;;;;;;;;;5033973;28;20025;-66
2024/04/07 06:59:11;;;;;;;1.92;1.60;;;;;;;;;;5033483;28;20043;-66
2024/04/07 07:01:36;;;;;;;2.67;1.50;;;;;;;;;;5034094;28;20076;-65
2024/04/07 07:04:04;;;;;;;5.53;1.23;;;;;;;;;;5032549;28;20030;-66
2024/04/07 07:06:31;;;;;;;4.55;1.95;;;;;;;;;;5032897;28;20471;-66
2024/04/07 07:08:56;;;;;;;5.00;1.45;;;;;;;;;;5033899;28;20037;-66
2024/04/07 07:11:21;;;;;;;6.88;1.80;;;;;;;;;;5033759;28;20033;-66
2024/04/07 07:13:47;;;;;;;4.72;1.20;;;;;;;;;;5033550;28;20029;-65
2024/04/07 07:16:12;;;;;;;5.65;1.25;;;;;;;;;;5033457;28;20475;-66
2024/04/07 07:18:37;;;;;;;4.05;1.50;;;;;;;;;;5033376;28;20017;-67
2024/04/07 07:21:04;;;;;;;3.53;1.40;;;;;;;;;;5032846;28;20028;-66
2024/04/07 07:23:30;;;;;;;2.30;1.30;;;;;;;;;;5033597;28;20021;-66
2024/04/07 07:25:55;;;;;;;5.38;1.45;;;;;;;;;;5033414;28;20056;-66
2024/04/07 07:28:22;;;;;;;6.10;1.65;;;;;;;;;;5032626;28;20030;-66
2024/04/07 07:30:49;;;;;;;3.22;1.35;;;;;;;;;;5033275;28;20048;-65
2024/04/07 07:33:14;;;;;;;1.83;1.30;;;;;;;;;;5033073;28;20079;-65
2024/04/07 07:35:42;;;;;;;2.40;1.23;;;;;;;;;;5033005;28;20037;-66
2024/04/07 07:38:08;;;;;;;2.72;1.33;;;;;;;;;;5033217;28;20151;-65
2024/04/07 07:40:33;;;;;;;3.75;2.38;;;;;;;;;;5033228;28;20033;-65
2024/04/07 07:42:58;;;;;;;7.90;1.67;;;;;;;;;;5032457;28;20017;-65
2024/04/07 07:45:24;;;;;;;3.45;1.63;;;;;;;;;;5028706;28;20022;-66
2024/04/07 07:47:52;;;;;;;4.13;1.48;;;;;;;;;;5032621;28;20391;-66
2024/04/07 07:50:19;;;;;;;2.65;1.50;;;;;;;;;;5030815;28;20364;-66
2024/04/07 07:52:45;;;;;;;2.72;1.58;;;;;;;;;;5033146;28;20029;-66
2024/04/07 07:55:10;;;;;;;1.85;1.73;;;;;;;;;;5032822;28;20471;-66
2024/04/07 07:57:36;;;;;;;5.00;1.73;;;;;;;;;;5033094;28;20051;-66
2024/04/07 08:00:04;;;;;;;3.53;1.52;;;;;;;;;;5032940;28;20402;-66
2024/04/07 08:02:30;;;;;;;8.82;1.42;;;;;;;;;;5032576;28;20026;-66
2024/04/07 08:04:55;;;;;;;5.20;1.48;;;;;;;;;;5032775;28;20465;-66
2024/04/07 08:07:20;;;;;;;2.50;1.50;;;;;;;;;;5032828;28;20066;-66
2024/04/07 08:09:46;;;;;;;5.38;2.05;;;;;;;;;;5032977;28;20021;-66
2024/04/07 08:12:12;;;;;;;2.95;1.88;;;;;;;;;;5032631;28;20025;-66
2024/04/07 08:14:37;;;;;;;7.60;1.95;;;;;;;;;;5026078;28;20034;-66
2024/04/07 08:17:04;;;;;;;6.13;1.80;;;;;;;;;;5012902;28;20037;-66
2024/04/07 08:19:29;;;;;;;6.88;1.60;;;;;;;;;;5016951;28;20018;-66
2024/04/07 08:21:55;;;;;;;4.68;1.88;;;;;;;;;;5033156;28;20032;-65
2024/04/07 08:24:20;;;;;;;5.90;1.90;;;;;;;;;;5031646;28;20544;-66
2024/04/07 08:26:45;;;;;;;4.03;1.88;;;;;;;;;;5030748;28;20029;-66
2024/04/07 08:29:11;;;;;;;3.78;2.03;;;;;;;;;;5032684;28;20022;-66
2024/04/07 08:31:36;;;;;;;2.33;1.40;;;;;;;;;;5031972;28;20029;-66
2024/04/07 08:34:01;;;;;;;4.35;1.77;;;;;;;;;;5032388;28;20390;-66
2024/04/07 08:36:27;;;;;;;2.00;1.50;;;;;;;;;;5032468;28;20086;-66
2024/04/07 08:38:53;;;;;;;3.40;1.42;;;;;;;;;;5031775;28;20093;-67
2024/04/07 08:41:18;;;;;;;4.43;2.00;;;;;;;;;;5032940;28;20096;-67
2024/04/07 08:43:47;;;;;;;7.60;2.03;;;;;;;;;;5032639;28;20025;-66
2024/04/07 08:46:13;;;;;;;3.90;1.77;;;;;;;;;;5032510;28;20075;-67
2024/04/07 08:48:40;;;;;;;6.72;1.88;;;;;;;;;;5030900;28;20017;-66
2024/04/07 08:51:09;;;;;;;5.03;1.48;;;;;;;;;;5031003;28;20025;-67
2024/04/07 08:53:38;;;;;;;4.18;1.60;;;;;;;;;;5030510;28;20403;-67
2024/04/07 08:56:04;;;;;;;7.65;1.95;;;;;;;;;;5031052;28;20025;-68
2024/04/07 08:58:29;;;;;;;5.50;1.77;;;;;;;;;;5030992;28;20026;-67
2024/04/07 09:00:55;;;;;;;3.47;1.70;;;;;;;;;;5034016;28;20033;-67
2024/04/07 09:03:21;;;;;;;2.55;1.58;;;;;;;;;;5034608;28;20116;-67
2024/04/07 09:05:48;;;;;;;7.15;3.00;;;;;;;;;;5036116;28;20112;-67
2024/04/07 09:08:13;;;;;;;2.72;1.52;;;;;;;;;;5035370;28;20034;-67
2024/04/07 09:10:39;;;;;;;4.78;1.83;;;;;;;;;;5036019;28;20032;-67
2024/04/07 09:13:04;;;;;;;4.65;1.60;;;;;;;;;;5035887;28;20029;-67
2024/04/07 09:15:29;;;;;;;2.85;1.90;;;;;;;;;;5035211;28;20045;-67
2024/04/07 09:17:55;;;;;;;4.97;1.50;;;;;;;;;;5034348;28;20533;-67
2024/04/07 09:20:20;;;;;;;4.55;1.52;;;;;;;;;;5034233;28;20020;-68
2024/04/07 09:22:46;;;;;;;2.63;1.63;;;;;;;;;;5034999;28;20044;-67
2024/04/07 09:25:12;;;;;;;7.90;1.83;;;;;;;;;;5035266;28;20018;-68
2024/04/07 09:27:37;;;;;;;6.15;1.80;;;;;;;;;;5035482;28;20021;-68
2024/04/07 09:30:05;;;;;;;4.00;1.45;;;;;;;;;;5035387;28;20026;-67
2024/04/07 09:32:30;;;;;;;6.05;1.63;;;;;;;;;;5033984;28;20029;-68
2024/04/07 09:34:56;;;;;;;9.35;2.40;;;;;;;;;;5034700;28;20035;-67
2024/04/07 09:37:21;;;;;;;5.00;1.73;;;;;;;;;;5035617;28;20120;-68
2024/04/07 09:39:47;;;;;;;7.97;1.83;;;;;;;;;;5035299;28;20018;-68
2024/04/07 09:42:19;;;;;;;9.77;2.50;;;;;;;;;;5035318;28;20022;-67
2024/04/07 09:44:46;;;;;;;4.28;1.60;;;;;;;;;;5032677;28;20041;-67
2024/04/07 09:47:16;;;;;;;4.45;2.03;;;;;;;;;;5030865;28;20030;-68
2024/04/07 09:49:42;;;;;;;6.95;2.10;;;;;;;;;;5034772;28;20099;-67
2024/04/07 09:52:08;;;;;;;4.35;1.75;;;;;;;;;;5033569;28;20445;-67
2024/04/07 09:54:40;;;;;;;10.30;3.55;;;;;;;;;;5033524;28;20017;-68
2024/04/07 09:57:13;;;;;;;9.75;2.38;;;;;;;;;;5035306;28;20029;-68
2024/04/07 09:59:39;;;;;;;9.00;2.42;;;;;;;;;;5035322;28;20021;-68
2024/04/07 10:02:05;;;;;;;8.30;2.47;;;;;;;;;;5034945;28;20021;-67
2024/04/07 10:04:33;;;;;;;4.07;1.55;;;;;;;;;;5022356;28;20025;-68
2024/04/07 10:06:59;;;;;;;7.43;2.50;;;;;;;;;;5029565;28;20022;-67
2024/04/07 10:09:25;;;;;;;8.98;2.47;;;;;;;;;;5030115;28;20097;-67
2024/04/07 10:11:50;;;;;;;7.78;2.35;;;;;;;;;;5015067;28;20053;-68
2024/04/07 10:14:16;;;;;;;7.88;2.10;;;;;;;;;;5032428;28;20029;-67
2024/04/07 10:16:47;;;;;;;6.75;2.65;;;;;;;;;;5030202;28;20127;-67
2024/04/07 10:19:14;;;;;;;8.82;2.13;;;;;;;;;;5034226;28;20022;-67
2024/04/07 10:21:39;;;;;;;10.80;3.13;;;;;;;;;;5021796;28;20475;-67
2024/04/07 10:24:06;;;;;;;7.22;2.47;;;;;;;;;;5014676;28;20037;-67
2024/04/07 10:26:32;;;;;;;4.95;1.52;;;;;;;;;;5014071;28;20093;-67
2024/04/07 10:28:57;;;;;;;7.28;2.40;;;;;;;;;;5023214;28;20025;-67
2024/04/07 10:31:30;;;;;;;5.22;1.98;;;;;;;;;;5030721;28;20022;-67
2024/04/07 10:33:56;;;;;;;7.97;1.92;;;;;;;;;;5033615;28;20489;-67
2024/04/07 10:36:22;;;;;;;6.97;1.90;;;;;;;;;;5032848;28;20078;-69
2024/04/07 10:38:54;;;;;;;9.43;2.13;;;;;;;;;;5034516;28;20021;-68
2024/04/07 10:41:22;;;;;;;5.10;1.85;;;;;;;;;;5033567;28;20049;-70
2024/04/07 10:43:48;;;;;;;7.85;2.00;;;;;;;;;;5032443;28;20103;-68
2024/04/07 10:46:14;;;;;;;8.75;2.75;;;;;;;;;;5033380;28;20482;-70
2024/04/07 10:48:40;;;;;;;5.00;1.90;;;;;;;;;;5033530;28;20031;-69
2024/04/07 10:51:09;;;;;;;6.75;2.08;;;;;;;;;;5034030;28;20025;-70
2024/04/07 10:53:35;;;;;;;6.57;2.10;;;;;;;;;;5033289;28;20499;-70
2024/04/07 10:56:01;;;;;;;10.77;1.85;;;;;;;;;;5033762;28;20499;-70
2024/04/07 10:58:26;;;;;;;8.05;2.13;;;;;;;;;;5033811;28;20033;-70
2024/04/07 11:00:51;;;;;;;3.92;2.08;;;;;;;;;;5034102;28;20428;-70
2024/04/07 11:03:17;;;;;;;4.65;2.15;;;;;;;;;;5032339;28;20022;-69
2024/04/07 11:05:42;;;;;;;6.03;1.55;;;;;;;;;;5033234;28;20029;-68
2024/04/07 11:08:07;;;;;;;6.70;2.17;;;;;;;;;;5033083;28;20540;-70
2024/04/07 11:10:37;;;;;;;4.78;2.20;;;;;;;;;;5033540;28;20037;-69
2024/04/07 11:13:06;;;;;;;13.63;2.38;;;;;;;;;;5032645;28;20136;-69
2024/04/07 11:15:31;;;;;;;6.07;2.15;;;;;;;;;;5031985;28;20034;-70
2024/04/07 11:18:00;;;;;;;6.28;2.15;;;;;;;;;;5032202;28;20038;-67
2024/04/07 11:20:25;;;;;;;4.93;2.10;;;;;;;;;;5031525;28;20025;-67
2024/04/07 11:22:51;;;;;;;5.32;1.80;;;;;;;;;;5033239;28;20474;-67
2024/04/07 11:25:16;;;;;;;9.57;2.30;;;;;;;;;;5032634;28;20025;-67
2024/04/07 11:27:43;;;;;;;12.30;2.55;;;;;;;;;;5033287;28;20079;-67
2024/04/07 11:30:09;;;;;;;9.95;2.85;;;;;;;;;;5031920;28;20091;-67
2024/04/07 11:32:37;;;;;;;6.75;2.00;;;;;;;;;;5032729;28;20475;-67
2024/04/07 11:35:04;;;;;;;7.10;2.10;;;;;;;;;;5032502;28;20029;-67
2024/04/07 11:37:29;;;;;;;6.00;1.70;;;;;;;;;;5033075;28;20548;-68
2024/04/07 11:39:54;;;;;;;6.22;2.92;;;;;;;;;;5032340;28;20030;-66
2024/04/07 11:42:22;;;;;;;8.45;2.95;;;;;;;;;;5032729;28;20037;-67
2024/04/07 11:44:48;;;;;;;10.80;3.40;;;;;;;;;;5032705;28;20029;-68
2024/04/07 11:47:14;;;;;;;8.90;2.70;;;;;;;;;;5026548;28;20052;-68
2024/04/07 11:49:39;;;;;;;10.32;2.70;;;;;;;;;;5032676;28;20633;-68
2024/04/07 11:52:04;;;;;;;8.23;2.20;;;;;;;;;;5031294;28;20080;-68
2024/04/07 11:54:31;;;;;;;8.68;2.33;;;;;;;;;;5033181;28;20021;-69
2024/04/07 11:56:56;;;;;;;7.32;2.22;;;;;;;;;;5033060;28;20021;-68
2024/04/07 11:59:22;;;;;;;4.95;1.70;;;;;;;;;;5031465;28;20013;-68
2024/04/07 12:01:47;;;;;;;13.05;2.78;;;;;;;;;;5032963;28;20120;-69
2024/04/07 12:04:13;;;;;;;7.03;2.28;;;;;;;;;;5016776;28;20033;-69
2024/04/07 12:06:38;;;;;;;8.93;3.22;;;;;;;;;;5013086;28;20034;-69
2024/04/07 12:09:07;;;;;;;12.27;2.30;;;;;;;;;;5012825;28;20026;-69
2024/04/07 12:11:34;;;;;;;5.53;2.33;;;;;;;;;;5013456;28;20491;-69
2024/04/07 12:13:59;;;;;;;11.20;3.25;;;;;;;;;;5013143;28;20436;-69
2024/04/07 12:16:25;;;;;;;14.30;3.30;;;;;;;;;;5048272;23;20049;-66
2024/04/07 12:18:50;;;;;;;10.55;2.78;;;;;;;;;;5031943;28;20033;-66
2024/04/07 12:21:15;;;;;;;7.25;2.00;;;;;;;;;;5015541;28;20052;-66
2024/04/07 12:23:41;;;;;;;14.45;2.40;;;;;;;;;;5012106;28;20026;-66
2024/04/07 12:26:08;;;;;;;7.80;2.20;;;;;;;;;;5011383;28;20384;-67
2024/04/07 12:28:33;;;;;;;10.85;2.40;;;;;;;;;;4995291;28;20057;-67
2024/04/07 12:30:59;;;;;;;8.45;1.83;;;;;;;;;;5015116;28;20021;-67
2024/04/07 12:33:24;;;;;;;8.93;2.45;;;;;;;;;;5016604;28;20501;-66
2024/04/07 12:35:49;;;;;;;5.07;1.95;;;;;;;;;;5014056;28;20088;-67
2024/04/07 12:38:15;;;;;;;14.25;2.60;;;;;;;;;;5016247;28;20489;-67
2024/04/07 12:40:41;;;;;;;6.40;2.28;;;;;;;;;;5016785;28;20037;-66
2024/04/07 12:43:06;;;;;;;11.50;2.90;;;;;;;;;;5016508;28;20422;-66
2024/04/07 12:45:33;;;;;;;12.43;2.03;;;;;;;;;;5016107;28;20014;-67
2024/04/07 12:47:59;;;;;;;10.52;2.83;;;;;;;;;;5016521;28;20022;-67
2024/04/07 12:50:24;;;;;;;9.65;2.90;;;;;;;;;;5016431;28;20096;-67
2024/04/07 12:52:50;;;;;;;8.65;2.42;;;;;;;;;;5016391;28;20025;-67
2024/04/07 12:55:15;;;;;;;11.00;3.08;;;;;;;;;;4998463;28;20028;-67
2024/04/07 12:57:41;;;;;;;11.07;2.28;;;;;;;;;;5016286;28;20133;-66
2024/04/07 13:00:14;;;;;;;9.52;2.50;;;;;;;;;;5015112;28;20013;-67
2024/04/07 13:02:40;;;;;;;13.50;2.17;;;;;;;;;;5015412;28;20032;-67
2024/04/07 13:05:07;;;;;;;8.65;2.58;;;;;;;;;;5015979;28;20507;-67
2024/04/07 13:07:32;;;;;;;10.90;2.20;;;;;;;;;;5013514;28;20029;-67
2024/04/07 13:09:58;;;;;;;13.65;2.65;;;;;;;;;;5020384;28;20018;-66
2024/04/07 13:12:23;;;;;;;14.80;2.42;;;;;;;;;;5014914;28;20038;-67
2024/04/07 13:14:48;;;;;;;10.48;2.25;;;;;;;;;;5015931;28;20419;-67
2024/04/07 13:17:14;;;;;;;12.00;3.30;;;;;;;;;;5015965;28;20030;-67
2024/04/07 13:19:39;;;;;;;11.35;2.58;;;;;;;;;;5015828;28;20026;-67
2024/04/07 13:22:05;;;;;;;8.60;2.15;;;;;;;;;;5015509;28;20388;-67
2024/04/07 13:24:30;;;;;;;7.90;2.47;;;;;;;;;;5015667;28;20021;-66
2024/04/07 13:26:55;;;;;;;11.30;2.50;;;;;;;;;;5015728;28;20083;-67
2024/04/07 13:29:21;;;;;;;11.13;2.53;;;;;;;;;;5015611;28;20037;-66
2024/04/07 13:31:46;;;;;;;5.53;2.30;;;;;;;;;;5015239;28;20026;-67
2024/04/07 13:34:12;;;;;;;9.20;2.70;;;;;;;;;;5014346;28;20022;-67
2024/04/07 13:36:37;;;;;;;11.98;2.88;;;;;;;;;;5030836;28;20022;-67
2024/04/07 13:39:03;;;;;;;8.05;1.92;;;;;;;;;;5015651;28;20036;-67
2024/04/07 13:41:29;;;;;;;13.38;2.55;;;;;;;;;;5030505;28;20533;-67
2024/04/07 13:43:55;;;;;;;11.57;2.42;;;;;;;;;;5030770;28;20048;-67
2024/04/07 13:46:20;;;;;;;5.85;2.50;;;;;;;;;;5015174;28;20022;-68
2024/04/07 13:48:45;;;;;;;7.35;2.45;;;;;;;;;;5015543;28;20026;-68
2024/04/07 13:51:11;;;;;;;6.85;2.45;;;;;;;;;;5014917;28;20475;-68
2024/04/07 13:53:36;;;;;;;6.93;2.72;;;;;;;;;;5016403;28;20034;-68
2024/04/07 13:56:02;;;;;;;11.35;2.55;;;;;;;;;;4994484;28;20030;-67
2024/04/07 13:58:28;;;;;;;10.00;2.65;;;;;;;;;;4996420;28;20022;-67
2024/04/07 14:00:54;;;;;;;8.25;2.75;;;;;;;;;;5017423;28;20026;-67
2024/04/07 14:03:19;;;;;;;9.98;2.40;;;;;;;;;;5014954;28;20030;-68
2024/04/07 14:05:46;;;;;;;9.98;3.25;;;;;;;;;;5016790;28;20399;-68
2024/04/07 14:08:11;;;;;;;7.43;1.95;;;;;;;;;;5015481;28;20022;-68
2024/04/07 14:10:37;;;;;;;10.93;2.55;;;;;;;;;;5024706;28;20032;-68
2024/04/07 14:13:04;;;;;;;11.07;2.97;;;;;;;;;;5033416;28;20052;-67
2024/04/07 14:15:30;;;;;;;15.32;3.20;;;;;;;;;;5023241;28;20072;-67
2024/04/07 14:17:55;;;;;;;11.20;2.20;;;;;;;;;;5015518;28;20022;-68
2024/04/07 14:20:20;;;;;;;7.78;2.33;;;;;;;;;;5022532;28;20030;-68
2024/04/07 14:22:46;;;;;;;7.25;2.72;;;;;;;;;;5035189;28;20025;-68
2024/04/07 14:25:12;;;;;;;8.15;3.20;;;;;;;;;;5022137;28;20029;-68
2024/04/07 14:27:38;;;;;;;8.10;2.42;;;;;;;;;;5014118;28;20022;-68
2024/04/07 14:30:04;;;;;;;11.18;3.75;;;;;;;;;;5014172;28;20060;-68
2024/04/07 14:32:29;;;;;;;8.20;2.47;;;;;;;;;;5014531;28;20034;-68
2024/04/07 14:34:54;;;;;;;6.55;2.88;;;;;;;;;;5014334;28;20026;-67